Weather at Kanpur Airport

Public forecast

Using degrees Celsius for public forecast. Weather courtesy of forecast.io.

Closest aviation weather report (METAR) to Kanpur Airport

Closest report is Chaudhary Charan Singh International Airport, 33.5 nm (62.0 km) NE.

2024/05/21 01:00 (retrieved 29 minutes ago)

VILK 210100Z 10008KT 5000 HZ NSC 28/19 Q1003 NOSIG

Closest aviation forecast (TAF) to Kanpur Airport

Forecast is more than 12 hours old.

Closest forecast is Gwalior Airport, 117.6 nm (217.8 km) W.

2024/05/20 12:00 (retrieved 13 hours ago)

TAF VIGR 200930Z 2012/2024 27015KT 6000 SCT030 FEW030TCU SCT100 TEMPO 2013/2014 27015G25KT 4000 TSRA SCT030 FEW030CB SCT100 BECMG 2016/2018 27005KT 6000 SCT030 SCT250